createdAt,value
2018-01-20T00:00:15.330Z,43.90
2018-01-20T00:02:43.156Z,44.10
2018-01-20T00:05:10.924Z,44.00
2018-01-20T00:07:38.680Z,44.10
2018-01-20T00:23:35.649Z,45.00
2018-01-20T00:26:08.937Z,44.90
2018-01-20T00:28:36.784Z,44.70
2018-01-20T00:31:04.573Z,44.40
2018-01-20T00:33:32.400Z,44.30
2018-01-20T00:36:00.202Z,44.30
2018-01-20T00:38:27.956Z,44.30
2018-01-20T00:40:55.769Z,44.50
2018-01-20T00:43:23.607Z,44.60
2018-01-20T00:45:51.407Z,44.70
2018-01-20T00:48:19.910Z,45.00
2018-01-20T00:50:47.724Z,44.70
2018-01-20T00:53:15.525Z,44.70
2018-01-20T00:55:43.340Z,44.90
2018-01-20T00:58:11.156Z,44.80
2018-01-20T01:00:38.954Z,44.60
2018-01-20T01:03:06.773Z,44.60
2018-01-20T01:05:34.520Z,44.70
2018-01-20T01:08:02.359Z,44.80
2018-01-20T01:10:30.169Z,44.80
2018-01-20T01:12:57.918Z,44.70
2018-01-20T01:15:25.683Z,44.80
2018-01-20T01:17:53.408Z,44.90
2018-01-20T01:20:21.244Z,44.80
2018-01-20T01:22:49.011Z,44.80
2018-01-20T01:25:16.768Z,45.00
2018-01-20T01:27:44.591Z,44.90
2018-01-20T01:30:12.415Z,44.90
2018-01-20T01:32:40.225Z,44.90
2018-01-20T01:35:08.778Z,45.10
2018-01-20T01:37:36.559Z,45.00
2018-01-20T01:40:04.381Z,45.00
2018-01-20T01:42:32.115Z,44.90
2018-01-20T01:44:59.950Z,45.00
2018-01-20T01:47:27.748Z,45.00
2018-01-20T01:49:55.591Z,44.80
2018-01-20T01:52:24.152Z,44.90
2018-01-20T01:54:51.919Z,44.90
2018-01-20T01:57:19.718Z,44.90
2018-01-20T01:59:48.252Z,45.10
2018-01-20T02:02:16.038Z,45.00
2018-01-20T02:04:43.789Z,45.10
2018-01-20T02:07:11.600Z,45.00
2018-01-20T02:09:39.355Z,45.10
2018-01-20T02:12:07.112Z,45.00
2018-01-20T02:14:34.935Z,45.00
2018-01-20T02:17:02.689Z,45.10
2018-01-20T02:19:30.814Z,45.30
2018-01-20T02:21:58.579Z,45.30
2018-01-20T02:24:26.385Z,45.20
2018-01-20T02:26:54.978Z,45.20
2018-01-20T02:29:22.711Z,45.20
2018-01-20T02:31:50.535Z,45.40
2018-01-20T02:34:18.265Z,45.40
2018-01-20T02:36:46.008Z,45.30
2018-01-20T02:39:13.755Z,45.30
2018-01-20T02:41:41.569Z,45.40
2018-01-20T02:44:09.317Z,45.30
2018-01-20T02:46:37.103Z,45.30
2018-01-20T02:49:04.919Z,45.30
2018-01-20T02:51:32.716Z,45.20
2018-01-20T02:54:00.561Z,45.10
2018-01-20T02:56:28.396Z,45.10
2018-01-20T02:58:56.190Z,45.30
2018-01-20T03:01:23.993Z,45.40
2018-01-20T03:03:51.831Z,45.30
2018-01-20T03:06:19.586Z,45.30
2018-01-20T03:08:47.311Z,45.30
2018-01-20T03:11:15.058Z,45.30
2018-01-20T03:13:42.785Z,45.30
2018-01-20T03:16:10.519Z,45.40
2018-01-20T03:18:38.272Z,45.30
2018-01-20T03:21:06.099Z,45.40
2018-01-20T03:23:33.932Z,45.30
2018-01-20T03:26:01.778Z,45.20
2018-01-20T03:28:30.307Z,45.20
2018-01-20T03:30:58.089Z,45.10
2018-01-20T03:33:25.857Z,45.20
2018-01-20T03:35:53.646Z,45.10
2018-01-20T03:38:21.392Z,45.20
2018-01-20T03:40:49.200Z,45.30
2018-01-20T03:43:17.033Z,45.20
2018-01-20T03:45:44.833Z,45.20
2018-01-20T03:48:13.418Z,45.30
2018-01-20T03:50:41.157Z,45.20
2018-01-20T03:53:08.968Z,45.40
2018-01-20T03:55:36.786Z,45.40
2018-01-20T03:58:04.536Z,44.90
2018-01-20T04:00:32.266Z,45.30
2018-01-20T04:02:59.999Z,45.50
2018-01-20T04:05:27.769Z,45.40
2018-01-20T04:07:55.521Z,45.50
2018-01-20T04:10:23.328Z,45.60
2018-01-20T04:12:51.121Z,45.50
2018-01-20T04:15:18.937Z,45.40
2018-01-20T04:17:47.533Z,45.90
2018-01-20T04:20:15.327Z,45.30
2018-01-20T04:22:43.082Z,45.40
2018-01-20T04:25:10.848Z,45.60
2018-01-20T04:27:38.566Z,45.50
2018-01-20T04:30:06.308Z,45.70
2018-01-20T04:32:34.114Z,45.70
2018-01-20T04:35:01.835Z,45.60
2018-01-20T04:37:29.589Z,45.60
2018-01-20T04:39:57.407Z,45.70
2018-01-20T04:42:25.164Z,45.60
2018-01-20T04:44:52.968Z,45.80
2018-01-20T04:47:20.758Z,45.70
2018-01-20T04:49:48.720Z,45.60
2018-01-20T04:52:16.442Z,45.30
2018-01-20T04:54:44.216Z,45.20
2018-01-20T04:57:12.928Z,44.90
2018-01-20T04:59:40.706Z,44.50
2018-01-20T05:02:08.453Z,43.80
2018-01-20T05:04:36.232Z,43.20
2018-01-20T05:07:04.087Z,44.20
2018-01-20T05:09:31.864Z,44.10
2018-01-20T05:11:59.615Z,43.70
2018-01-20T05:14:27.395Z,43.60
2018-01-20T05:16:55.200Z,43.50
2018-01-20T05:19:22.961Z,43.40
2018-01-20T05:21:50.741Z,43.00
2018-01-20T05:24:18.529Z,42.80
2018-01-20T05:26:46.280Z,42.60
2018-01-20T05:29:14.046Z,42.40
2018-01-20T05:31:41.831Z,42.20
2018-01-20T05:34:09.589Z,42.10
2018-01-20T05:36:37.319Z,42.00
2018-01-20T05:39:05.158Z,41.90
2018-01-20T05:41:33.701Z,41.40
2018-01-20T05:44:01.453Z,41.20
2018-01-20T05:46:29.187Z,41.20
2018-01-20T05:48:57.772Z,41.20
2018-01-20T05:51:26.278Z,40.80
2018-01-20T05:53:54.028Z,40.80
2018-01-20T05:56:27.781Z,41.20
2018-01-20T05:58:57.781Z,39.70
2018-01-20T06:01:25.651Z,39.70
2018-01-20T06:03:53.420Z,40.00
2018-01-20T06:06:21.276Z,40.70
2018-01-20T06:08:49.193Z,40.70
2018-01-20T06:11:17.236Z,40.30
2018-01-20T06:13:45.096Z,40.20
2018-01-20T06:16:12.987Z,40.20
2018-01-20T06:18:40.861Z,40.30
2018-01-20T06:21:08.832Z,40.00
2018-01-20T06:23:36.650Z,39.90
2018-01-20T06:26:04.422Z,40.10
2018-01-20T06:28:32.250Z,40.00
2018-01-20T06:31:00.110Z,40.20
2018-01-20T06:33:28.056Z,37.20
2018-01-20T06:35:55.821Z,40.00
2018-01-20T06:38:23.651Z,40.20
2018-01-20T06:40:51.485Z,37.80
2018-01-20T06:43:19.233Z,40.50
2018-01-20T06:45:46.972Z,27.20
2018-01-20T06:48:14.753Z,30.60
2018-01-20T06:50:42.558Z,49.60
2018-01-20T06:53:10.339Z,46.00
2018-01-20T06:55:38.929Z,44.30
2018-01-20T06:58:06.789Z,44.10
2018-01-20T07:00:34.612Z,42.40
2018-01-20T07:03:02.458Z,42.20
2018-01-20T07:05:30.307Z,41.90
2018-01-20T07:07:58.115Z,37.40
2018-01-20T07:10:25.930Z,38.40
2018-01-20T07:12:54.677Z,36.90
2018-01-20T07:15:22.592Z,37.00
2018-01-20T07:17:50.466Z,40.20
2018-01-20T07:20:19.098Z,39.60
2018-01-20T07:22:46.966Z,39.60
2018-01-20T07:25:14.849Z,30.50
2018-01-20T07:27:42.668Z,39.70
2018-01-20T07:30:10.544Z,39.30
2018-01-20T07:32:39.887Z,38.90
2018-01-20T07:35:07.741Z,38.30
2018-01-20T07:37:35.574Z,39.70
2018-01-20T07:40:09.048Z,37.60
2018-01-20T07:42:36.918Z,39.60
2018-01-20T07:45:04.872Z,40.40
2018-01-20T07:47:32.688Z,39.50
2018-01-20T07:50:00.531Z,39.50
2018-01-20T07:52:28.357Z,35.80
2018-01-20T07:54:56.158Z,40.30
2018-01-20T07:57:27.916Z,33.40
2018-01-20T07:59:56.835Z,31.50
2018-01-20T08:02:24.670Z,38.80
2018-01-20T08:04:52.551Z,39.50
2018-01-20T08:07:20.438Z,31.90
2018-01-20T08:09:48.508Z,41.00
2018-01-20T08:12:17.203Z,38.40
2018-01-20T08:14:45.561Z,37.80
2018-01-20T08:17:13.403Z,39.20
2018-01-20T08:19:41.477Z,29.80
2018-01-20T08:22:14.171Z,43.30
2018-01-20T08:24:42.929Z,42.60
2018-01-20T08:27:10.866Z,40.60
2018-01-20T08:29:38.823Z,36.70
2018-01-20T08:32:06.761Z,27.50
2018-01-20T08:34:34.671Z,40.30
2018-01-20T08:37:02.496Z,41.60
2018-01-20T08:39:30.569Z,31.90
2018-01-20T08:41:58.727Z,35.40
2018-01-20T08:44:27.534Z,28.30
2018-01-20T08:46:57.862Z,42.90
2018-01-20T08:49:25.681Z,40.50
2018-01-20T08:51:54.363Z,32.50
2018-01-20T08:54:22.240Z,32.10
2018-01-20T08:56:50.794Z,27.30
2018-01-20T08:59:18.639Z,27.20
2018-01-20T09:01:46.377Z,36.60
2018-01-20T09:04:14.248Z,43.30
2018-01-20T09:06:42.188Z,33.10
2018-01-20T09:09:10.032Z,36.80
2018-01-20T09:11:37.952Z,40.80
2018-01-20T09:14:05.699Z,35.80
2018-01-20T09:16:33.514Z,29.00
2018-01-20T09:19:01.314Z,42.00
2018-01-20T09:21:29.262Z,38.90
2018-01-20T09:23:57.202Z,36.80
2018-01-20T09:26:25.173Z,33.50
2018-01-20T09:28:52.958Z,30.00
2018-01-20T09:31:21.339Z,40.60
2018-01-20T09:33:49.192Z,46.20
2018-01-20T09:36:17.383Z,33.60
2018-01-20T09:38:45.236Z,43.60
2018-01-20T09:41:13.155Z,38.20
2018-01-20T09:43:41.049Z,43.90
2018-01-20T09:46:08.906Z,30.20
2018-01-20T09:48:36.815Z,39.60
2018-01-20T09:51:04.677Z,44.00
2018-01-20T09:53:33.069Z,34.00
2018-01-20T09:56:01.163Z,30.50
2018-01-20T09:58:29.374Z,43.10
2018-01-20T10:01:05.420Z,31.80
2018-01-20T10:03:33.200Z,29.60
2018-01-20T10:06:00.934Z,47.30
2018-01-20T10:08:28.704Z,41.70
2018-01-20T10:10:56.502Z,42.30
2018-01-20T10:13:24.390Z,41.00
2018-01-20T10:15:52.161Z,45.90
2018-01-20T10:18:19.996Z,42.90
2018-01-20T10:20:47.760Z,41.60
2018-01-20T10:23:15.586Z,30.00
2018-01-20T10:25:44.307Z,31.80
2018-01-20T10:28:12.126Z,38.10
2018-01-20T10:30:40.785Z,41.20
2018-01-20T10:33:08.586Z,40.90
2018-01-20T10:35:36.388Z,45.70
2018-01-20T10:38:04.272Z,39.20
2018-01-20T10:40:32.247Z,44.80
2018-01-20T10:43:00.049Z,47.90
2018-01-20T10:45:27.838Z,43.40
2018-01-20T10:47:55.728Z,44.00
2018-01-20T10:50:23.502Z,44.80
2018-01-20T10:52:51.371Z,31.30
2018-01-20T10:55:19.156Z,39.40
2018-01-20T10:57:47.112Z,40.80
2018-01-20T11:00:14.953Z,44.10
2018-01-20T11:02:42.794Z,45.10
2018-01-20T11:05:11.304Z,42.50
2018-01-20T11:07:39.154Z,42.50
2018-01-20T11:10:07.762Z,42.30
2018-01-20T11:12:35.682Z,42.20
2018-01-20T11:15:03.490Z,42.10
2018-01-20T11:17:31.262Z,41.70
2018-01-20T11:19:59.072Z,41.80
2018-01-20T11:22:26.814Z,27.60
2018-01-20T11:24:54.543Z,40.90
2018-01-20T11:27:22.323Z,40.00
2018-01-20T11:29:50.053Z,32.20
2018-01-20T11:32:17.855Z,29.00
2018-01-20T11:34:45.657Z,29.60
2018-01-20T11:37:13.418Z,28.50
2018-01-20T11:39:41.202Z,30.40
2018-01-20T11:42:09.020Z,36.40
2018-01-20T11:44:36.839Z,32.50
2018-01-20T11:47:04.591Z,30.50
2018-01-20T11:49:32.347Z,35.50
2018-01-20T11:52:00.092Z,32.00
2018-01-20T11:54:27.867Z,35.60
2018-01-20T11:56:55.747Z,33.40
2018-01-20T11:59:23.516Z,35.70
2018-01-20T12:01:51.323Z,37.20
2018-01-20T12:04:19.128Z,35.50
2018-01-20T12:06:46.942Z,35.30
2018-01-20T12:09:14.687Z,35.30
2018-01-20T12:11:42.588Z,36.70
2018-01-20T12:14:10.366Z,35.70
2018-01-20T12:16:41.564Z,37.60
2018-01-20T12:19:10.576Z,34.90
2018-01-20T12:21:39.131Z,36.10
2018-01-20T12:24:08.989Z,35.80
2018-01-20T12:26:36.875Z,39.90
2018-01-20T12:29:05.572Z,35.90
2018-01-20T12:31:34.227Z,35.50
2018-01-20T12:34:02.201Z,35.40
2018-01-20T12:36:30.086Z,36.00
2018-01-20T12:38:58.844Z,36.30
2018-01-20T12:41:26.839Z,35.80
2018-01-20T12:43:54.790Z,37.40
2018-01-20T12:46:22.767Z,50.50
2018-01-20T12:48:52.339Z,43.20
2018-01-20T12:51:21.168Z,33.10
2018-01-20T12:53:49.633Z,33.00
2018-01-20T12:56:18.190Z,33.30
2018-01-20T12:58:46.150Z,41.00
2018-01-20T13:01:14.846Z,40.00
2018-01-20T13:03:43.683Z,34.70
2018-01-20T13:06:11.792Z,34.60
2018-01-20T13:08:39.967Z,34.00
2018-01-20T13:11:08.093Z,46.10
2018-01-20T13:13:35.896Z,34.30
2018-01-20T13:16:03.732Z,41.60
2018-01-20T13:18:31.523Z,30.90
2018-01-20T13:20:59.681Z,41.70
2018-01-20T13:23:27.436Z,33.10
2018-01-20T13:25:55.256Z,44.00
2018-01-20T13:28:23.159Z,40.90
2018-01-20T13:30:50.926Z,32.50
2018-01-20T13:33:19.478Z,36.80
2018-01-20T13:35:47.312Z,36.40
2018-01-20T13:38:15.181Z,30.30
2018-01-20T13:40:43.192Z,28.90
2018-01-20T13:43:11.070Z,29.80
2018-01-20T13:45:38.844Z,44.10
2018-01-20T13:48:06.715Z,42.80
2018-01-20T13:50:35.344Z,40.30
2018-01-20T13:53:03.132Z,40.30
2018-01-20T13:55:31.002Z,37.50
2018-01-20T13:57:58.775Z,39.50
2018-01-20T14:00:26.585Z,39.60
2018-01-20T14:02:54.364Z,39.40
2018-01-20T14:05:22.136Z,39.20
2018-01-20T14:07:49.948Z,39.10
2018-01-20T14:10:17.771Z,38.80
2018-01-20T14:12:45.547Z,37.40
2018-01-20T14:15:13.440Z,38.60
2018-01-20T14:17:41.332Z,37.10
2018-01-20T14:20:09.162Z,37.90
2018-01-20T14:22:36.978Z,38.30
2018-01-20T14:25:05.538Z,33.80
2018-01-20T14:27:33.356Z,33.70
2018-01-20T14:30:01.198Z,35.80
2018-01-20T14:32:28.995Z,37.30
2018-01-20T14:34:56.804Z,38.00
2018-01-20T14:37:24.716Z,38.30
2018-01-20T14:39:53.389Z,38.10
2018-01-20T14:42:22.130Z,38.00
2018-01-20T14:44:49.945Z,38.00
2018-01-20T14:47:17.805Z,36.70
2018-01-20T14:49:45.555Z,31.10
2018-01-20T14:52:13.433Z,27.70
2018-01-20T14:54:41.262Z,29.30
2018-01-20T14:57:09.022Z,32.10
2018-01-20T14:59:37.780Z,31.40
2018-01-20T15:02:05.618Z,33.30
2018-01-20T15:04:33.357Z,33.30
2018-01-20T15:07:01.266Z,32.00
2018-01-20T15:09:29.012Z,31.50
2018-01-20T15:11:56.805Z,31.50
2018-01-20T15:14:24.548Z,40.70
2018-01-20T15:16:52.448Z,41.80
2018-01-20T15:19:20.244Z,39.60
2018-01-20T15:21:48.045Z,38.80
2018-01-20T15:24:16.036Z,38.30
2018-01-20T15:26:43.879Z,28.10
2018-01-20T15:29:11.741Z,35.30
2018-01-20T15:31:39.675Z,36.80
2018-01-20T15:34:08.317Z,37.60
2018-01-20T15:36:36.127Z,37.60
2018-01-20T15:39:03.981Z,37.80
2018-01-20T15:41:31.799Z,38.00
2018-01-20T15:43:59.680Z,37.40
2018-01-20T15:46:27.428Z,38.20
2018-01-20T15:48:55.142Z,37.70
2018-01-20T15:51:23.001Z,38.10
2018-01-20T15:53:50.848Z,38.20
2018-01-20T15:56:18.683Z,37.20
2018-01-20T15:58:47.327Z,38.50
2018-01-20T16:01:15.148Z,38.40
2018-01-20T16:03:43.152Z,38.60
2018-01-20T16:06:11.015Z,38.90
2018-01-20T16:08:39.639Z,39.10
2018-01-20T16:11:07.457Z,39.10
2018-01-20T16:13:35.294Z,39.20
2018-01-20T16:16:03.815Z,39.20
2018-01-20T16:18:31.651Z,39.10
2018-01-20T16:20:59.440Z,35.60
2018-01-20T16:23:27.157Z,36.70
2018-01-20T16:25:54.972Z,38.20
2018-01-20T16:28:22.695Z,38.70
2018-01-20T16:30:50.425Z,38.60
2018-01-20T16:33:18.191Z,38.80
2018-01-20T16:35:45.914Z,39.00
2018-01-20T16:38:14.485Z,38.80
2018-01-20T16:40:42.309Z,38.70
2018-01-20T16:43:10.041Z,38.60
2018-01-20T16:45:38.621Z,39.00
2018-01-20T16:48:06.348Z,38.80
2018-01-20T16:50:34.141Z,39.00
2018-01-20T16:53:01.980Z,38.90
2018-01-20T16:55:29.790Z,38.80
2018-01-20T16:57:58.340Z,39.50
2018-01-20T17:00:26.104Z,39.40
2018-01-20T17:02:53.926Z,39.20
2018-01-20T17:05:22.611Z,39.10
2018-01-20T17:07:50.413Z,39.30
2018-01-20T17:10:18.213Z,39.20
2018-01-20T17:12:45.954Z,39.20
2018-01-20T17:15:13.702Z,38.90
2018-01-20T17:17:41.454Z,38.50
2018-01-20T17:20:09.240Z,38.50
2018-01-20T17:22:37.010Z,38.40
2018-01-20T17:25:04.905Z,38.50
2018-01-20T17:27:36.333Z,38.30
2018-01-20T17:30:04.151Z,38.40
2018-01-20T17:32:31.901Z,38.70
2018-01-20T17:34:59.709Z,38.20
2018-01-20T17:37:27.454Z,38.30
2018-01-20T17:39:55.214Z,38.40
2018-01-20T17:42:23.743Z,38.20
2018-01-20T17:44:51.743Z,38.70
2018-01-20T17:47:19.566Z,38.30
2018-01-20T17:49:47.437Z,38.10
2018-01-20T17:52:15.276Z,38.20
2018-01-20T17:54:43.168Z,38.20
2018-01-20T17:57:10.979Z,38.50
2018-01-20T17:59:38.765Z,38.50
2018-01-20T18:02:06.550Z,38.50
2018-01-20T18:04:35.097Z,38.40
2018-01-20T18:07:02.868Z,38.30
2018-01-20T18:09:30.655Z,38.60
2018-01-20T18:11:58.457Z,38.50
2018-01-20T18:14:26.274Z,38.50
2018-01-20T18:16:54.129Z,38.20
2018-01-20T18:19:21.973Z,38.40
2018-01-20T18:21:49.755Z,38.50
2018-01-20T18:24:17.593Z,38.20
2018-01-20T18:26:45.513Z,38.10
2018-01-20T18:29:13.419Z,38.00
2018-01-20T18:31:47.665Z,38.10
2018-01-20T18:34:15.414Z,37.70
2018-01-20T18:36:43.914Z,37.90
2018-01-20T18:39:11.648Z,37.80
2018-01-20T18:41:40.158Z,38.00
2018-01-20T18:44:07.923Z,37.90
2018-01-20T18:46:35.703Z,37.90
2018-01-20T18:49:03.472Z,37.80
2018-01-20T18:51:31.298Z,37.90
2018-01-20T18:53:59.071Z,37.70
2018-01-20T18:56:26.791Z,37.70
2018-01-20T18:58:54.523Z,37.80
2018-01-20T19:01:22.284Z,37.60
2018-01-20T19:03:50.093Z,37.70
2018-01-20T19:06:17.834Z,37.50
2018-01-20T19:08:45.604Z,36.90
2018-01-20T19:11:13.423Z,37.00
2018-01-20T19:13:41.216Z,37.10
2018-01-20T19:16:09.801Z,37.20
2018-01-20T19:18:37.544Z,37.20
2018-01-20T19:21:05.318Z,37.10
2018-01-20T19:23:33.138Z,37.40
2018-01-20T19:26:00.913Z,37.20
2018-01-20T19:28:28.708Z,37.30
2018-01-20T19:30:56.462Z,37.50
2018-01-20T19:33:24.303Z,37.30
2018-01-20T19:35:52.041Z,36.90
2018-01-20T19:38:21.345Z,36.90
2018-01-20T19:40:49.202Z,36.90
2018-01-20T19:43:18.386Z,37.10
2018-01-20T19:45:46.402Z,37.00
2018-01-20T19:48:14.167Z,36.90
2018-01-20T19:50:42.894Z,37.00
2018-01-20T19:53:10.674Z,37.10
2018-01-20T19:55:38.474Z,36.80
2018-01-20T19:58:06.270Z,36.90
2018-01-20T20:00:34.093Z,36.40
2018-01-20T20:03:02.621Z,36.60
2018-01-20T20:05:30.377Z,36.50
2018-01-20T20:07:58.213Z,36.80
2018-01-20T20:10:25.993Z,36.70
2018-01-20T20:12:54.517Z,36.50
2018-01-20T20:15:22.336Z,36.50
2018-01-20T20:17:50.129Z,36.60
2018-01-20T20:20:17.868Z,36.40
2018-01-20T20:22:45.648Z,36.10
2018-01-20T20:25:13.440Z,36.30
2018-01-20T20:27:41.158Z,36.10
2018-01-20T20:30:08.980Z,32.40
2018-01-20T20:32:36.804Z,36.20
2018-01-20T20:35:04.588Z,34.70
2018-01-20T20:37:32.338Z,31.70
2018-01-20T20:40:00.088Z,35.90
2018-01-20T20:42:27.907Z,33.90
2018-01-20T20:44:55.641Z,29.80
2018-01-20T20:47:23.464Z,26.60
2018-01-20T20:49:51.210Z,35.80
2018-01-20T20:52:18.968Z,27.20
2018-01-20T20:54:46.718Z,36.30
2018-01-20T20:57:14.470Z,32.20
2018-01-20T20:59:42.196Z,32.10
2018-01-20T21:02:09.999Z,36.40
2018-01-20T21:04:37.791Z,38.70
2018-01-20T21:07:05.535Z,29.60
2018-01-20T21:09:33.318Z,30.50
2018-01-20T21:12:01.057Z,37.20
2018-01-20T21:14:28.809Z,31.60
2018-01-20T21:16:56.579Z,32.00
2018-01-20T21:19:24.333Z,27.50
2018-01-20T21:21:52.102Z,28.40
2018-01-20T21:24:19.903Z,30.00
2018-01-20T21:26:47.713Z,29.70
2018-01-20T21:29:18.562Z,38.20
2018-01-20T21:31:47.584Z,32.70
2018-01-20T21:34:21.477Z,30.40
2018-01-20T21:36:49.598Z,30.20
2018-01-20T21:39:17.623Z,39.60
2018-01-20T21:41:45.528Z,41.60
2018-01-20T21:44:15.209Z,34.90
2018-01-20T21:46:44.481Z,38.60
2018-01-20T21:49:12.714Z,39.70
2018-01-20T21:51:40.471Z,31.30
2018-01-20T21:54:08.238Z,33.80
2018-01-20T21:56:36.030Z,38.30
2018-01-20T21:59:03.974Z,36.80
2018-01-20T22:01:32.206Z,38.50
2018-01-20T22:04:00.565Z,38.30
2018-01-20T22:06:29.165Z,37.70
2018-01-20T22:08:57.065Z,37.70
2018-01-20T22:11:24.880Z,38.50
2018-01-20T22:13:52.730Z,38.70
2018-01-20T22:16:20.472Z,37.90
2018-01-20T22:18:48.246Z,37.10
2018-01-20T22:21:15.989Z,36.60
2018-01-20T22:23:43.799Z,37.80
2018-01-20T22:26:11.577Z,36.30
2018-01-20T22:28:39.418Z,39.50
2018-01-20T22:31:07.147Z,39.80
2018-01-20T22:33:34.943Z,39.50
2018-01-20T22:36:02.743Z,39.50
2018-01-20T22:38:30.499Z,39.30
2018-01-20T22:40:58.305Z,39.40
2018-01-20T22:43:26.135Z,39.30
2018-01-20T22:45:53.928Z,39.50
2018-01-20T22:48:22.505Z,39.70
2018-01-20T22:50:50.333Z,39.60
2018-01-20T22:53:18.164Z,39.60
2018-01-20T22:55:45.911Z,39.50
2018-01-20T22:58:14.508Z,36.50
2018-01-20T23:00:42.300Z,36.50
2018-01-20T23:03:10.850Z,40.30
2018-01-20T23:05:39.452Z,38.30
2018-01-20T23:08:07.227Z,38.30
2018-01-20T23:10:35.036Z,40.10
2018-01-20T23:13:02.836Z,40.50
2018-01-20T23:15:30.580Z,40.50
2018-01-20T23:17:58.344Z,40.60
2018-01-20T23:20:26.147Z,40.70
2018-01-20T23:22:53.968Z,40.80
2018-01-20T23:25:21.716Z,41.00
2018-01-20T23:27:49.523Z,40.90
2018-01-20T23:30:18.514Z,41.10
2018-01-20T23:32:47.313Z,41.00
2018-01-20T23:35:18.673Z,40.80
2018-01-20T23:37:48.188Z,40.70
2018-01-20T23:40:17.975Z,40.60
2018-01-20T23:42:45.911Z,35.30
2018-01-20T23:45:13.692Z,40.70
2018-01-20T23:47:41.476Z,41.90
2018-01-20T23:50:09.275Z,42.00
2018-01-20T23:52:37.088Z,41.70
2018-01-20T23:55:04.906Z,41.50
2018-01-20T23:57:32.723Z,39.20
